createdAt,value
2018-12-17T00:01:09.767Z,3.40
2018-12-17T00:03:37.324Z,3.50
2018-12-17T00:06:05.143Z,3.50
2018-12-17T00:08:32.711Z,3.50
2018-12-17T00:11:00.711Z,3.50
2018-12-17T00:13:28.356Z,3.60
2018-12-17T00:15:55.975Z,3.50
2018-12-17T00:18:23.539Z,3.60
2018-12-17T00:20:51.071Z,3.60
2018-12-17T00:23:18.627Z,3.70
2018-12-17T00:25:46.168Z,3.60
2018-12-17T00:28:13.728Z,3.60
2018-12-17T00:30:41.256Z,3.70
2018-12-17T00:33:08.819Z,3.60
2018-12-17T00:35:36.339Z,3.60
2018-12-17T00:38:03.896Z,3.60
2018-12-17T00:40:31.898Z,3.70
2018-12-17T00:42:59.534Z,3.70
2018-12-17T00:45:27.056Z,3.60
2018-12-17T00:47:54.639Z,3.60
2018-12-17T00:50:22.162Z,3.40
2018-12-17T00:52:49.692Z,3.50
2018-12-17T00:55:17.255Z,3.50
2018-12-17T00:57:44.787Z,3.60
2018-12-17T01:00:12.422Z,3.60
2018-12-17T01:02:39.957Z,3.60
2018-12-17T01:05:07.592Z,3.50
2018-12-17T01:07:35.593Z,3.50
2018-12-17T01:10:06.106Z,3.40
2018-12-17T01:12:33.636Z,3.40
2018-12-17T01:15:01.191Z,3.40
2018-12-17T01:17:28.724Z,3.30
2018-12-17T01:19:56.276Z,3.30
2018-12-17T01:22:23.812Z,3.20
2018-12-17T01:24:51.379Z,3.30
2018-12-17T01:27:18.912Z,3.30
2018-12-17T01:29:46.471Z,3.20
2018-12-17T01:34:46.923Z,3.10
2018-12-17T01:37:14.459Z,3.00
2018-12-17T01:39:42.019Z,3.00
2018-12-17T01:42:09.555Z,2.80
2018-12-17T01:44:37.117Z,2.80
2018-12-17T01:47:04.647Z,2.80
2018-12-17T01:49:32.211Z,2.60
2018-12-17T01:51:59.760Z,2.70
2018-12-17T01:54:27.315Z,2.50
2018-12-17T01:56:54.840Z,2.50
2018-12-17T01:59:22.391Z,2.50
2018-12-17T02:01:49.919Z,2.60
2018-12-17T02:04:17.563Z,2.60
2018-12-17T02:06:45.092Z,2.60
2018-12-17T02:09:12.643Z,2.50
2018-12-17T02:11:40.170Z,2.40
2018-12-17T02:14:07.725Z,2.60
2018-12-17T02:16:35.251Z,2.60
2018-12-17T02:19:02.802Z,2.60
2018-12-17T02:21:30.331Z,2.50
2018-12-17T02:23:57.894Z,2.60
2018-12-17T02:26:25.504Z,2.50
2018-12-17T02:28:53.064Z,2.40
2018-12-17T02:31:20.595Z,2.60
2018-12-17T02:33:48.152Z,2.70
2018-12-17T02:36:15.679Z,2.80
2018-12-17T02:38:43.212Z,2.70
2018-12-17T02:41:10.772Z,2.70
2018-12-17T02:43:38.296Z,2.70
2018-12-17T02:46:05.940Z,2.70
2018-12-17T02:48:33.473Z,2.70
2018-12-17T02:51:01.032Z,2.60
2018-12-17T02:53:28.564Z,2.80
2018-12-17T02:55:56.131Z,2.70
2018-12-17T02:58:23.672Z,2.80
2018-12-17T03:00:51.236Z,2.90
2018-12-17T03:03:18.771Z,2.90
2018-12-17T03:05:46.328Z,2.80
2018-12-17T03:08:13.866Z,2.80
2018-12-17T03:10:41.427Z,2.90
2018-12-17T03:13:08.960Z,2.90
2018-12-17T03:15:36.519Z,2.90
2018-12-17T03:18:04.205Z,2.90
2018-12-17T03:20:31.760Z,2.90
2018-12-17T03:22:59.287Z,2.90
2018-12-17T03:25:26.839Z,2.90
2018-12-17T03:27:54.372Z,3.00
2018-12-17T03:30:21.941Z,3.00
2018-12-17T03:32:49.481Z,3.10
2018-12-17T03:35:17.056Z,3.20
2018-12-17T03:37:44.704Z,3.20
2018-12-17T03:40:12.264Z,3.20
2018-12-17T03:42:39.796Z,3.30
2018-12-17T03:45:07.519Z,3.30
2018-12-17T03:47:35.065Z,3.20
2018-12-17T03:50:02.715Z,3.20
2018-12-17T03:52:30.372Z,3.10
2018-12-17T03:54:57.934Z,3.20
2018-12-17T03:57:25.468Z,3.30
2018-12-17T03:59:53.026Z,3.20
2018-12-17T04:02:20.563Z,3.10
2018-12-17T04:04:48.595Z,3.20
2018-12-17T04:07:16.126Z,3.00
2018-12-17T04:09:43.680Z,3.00
2018-12-17T04:12:11.216Z,3.10
2018-12-17T04:14:38.808Z,3.10
2018-12-17T04:17:06.343Z,3.10
2018-12-17T04:19:33.867Z,3.10
2018-12-17T04:22:01.436Z,3.10
2018-12-17T04:24:28.972Z,3.10
2018-12-17T04:26:56.528Z,3.10
2018-12-17T04:29:24.055Z,3.00
2018-12-17T04:31:51.740Z,3.10
2018-12-17T04:34:19.297Z,3.00
2018-12-17T04:36:46.859Z,3.10
2018-12-17T04:39:14.390Z,3.00
2018-12-17T04:41:41.960Z,3.00
2018-12-17T04:44:09.496Z,3.10
2018-12-17T04:46:37.059Z,3.10
2018-12-17T04:49:07.519Z,3.00
2018-12-17T04:51:35.093Z,3.00
2018-12-17T04:54:02.615Z,3.00
2018-12-17T04:56:30.173Z,3.00
2018-12-17T04:58:57.705Z,3.00
2018-12-17T05:01:25.266Z,3.10
2018-12-17T05:03:52.792Z,3.10
2018-12-17T05:06:20.347Z,3.00
2018-12-17T05:08:47.887Z,3.10
2018-12-17T05:11:15.435Z,3.00
2018-12-17T05:13:42.960Z,3.10
2018-12-17T05:16:10.518Z,3.10
2018-12-17T05:18:38.048Z,3.10
2018-12-17T05:21:05.725Z,3.10
2018-12-17T05:23:33.256Z,3.00
2018-12-17T05:26:00.811Z,3.00
2018-12-17T05:28:28.336Z,2.90
2018-12-17T05:30:55.891Z,2.90
2018-12-17T05:33:23.599Z,2.90
2018-12-17T05:35:51.147Z,2.90
2018-12-17T05:38:18.673Z,2.70
2018-12-17T05:40:46.235Z,2.80
2018-12-17T05:43:13.764Z,2.70
2018-12-17T05:45:41.317Z,2.50
2018-12-17T05:48:08.851Z,2.40
2018-12-17T05:50:36.416Z,2.50
2018-12-17T05:53:04.022Z,2.50
2018-12-17T05:55:31.697Z,2.50
2018-12-17T05:57:59.308Z,2.50
2018-12-17T06:00:27.418Z,2.40
2018-12-17T06:02:55.060Z,2.40
2018-12-17T06:05:22.597Z,2.40
2018-12-17T06:07:50.156Z,2.50
2018-12-17T06:10:17.690Z,2.50
2018-12-17T06:12:45.249Z,2.70
2018-12-17T06:15:12.774Z,2.60
2018-12-17T06:17:40.338Z,2.70
2018-12-17T06:20:07.871Z,2.70
2018-12-17T06:22:35.423Z,2.70
2018-12-17T06:25:03.143Z,2.80
2018-12-17T06:27:36.588Z,2.90
2018-12-17T06:30:00.261Z,3.00
2018-12-17T06:32:27.814Z,3.00
2018-12-17T06:34:55.343Z,2.90
2018-12-17T06:37:22.899Z,2.90
2018-12-17T06:39:50.430Z,2.90
2018-12-17T06:42:17.988Z,3.00
2018-12-17T06:44:46.696Z,3.10
2018-12-17T06:47:15.891Z,3.00
2018-12-17T06:49:46.267Z,3.00
2018-12-17T06:52:15.999Z,3.00
2018-12-17T06:54:46.898Z,3.00
2018-12-17T06:57:16.393Z,3.00
2018-12-17T06:59:46.284Z,3.00
2018-12-17T07:02:17.290Z,3.00
2018-12-17T07:04:47.402Z,3.00
2018-12-17T07:07:17.876Z,3.10
2018-12-17T07:09:49.066Z,3.20
2018-12-17T07:12:19.179Z,3.20
2018-12-17T07:14:48.957Z,3.20
2018-12-17T07:17:18.552Z,3.20
2018-12-17T07:19:48.934Z,3.30
2018-12-17T07:22:18.730Z,3.40
2018-12-17T07:24:47.886Z,3.50
2018-12-17T07:27:17.294Z,3.50
2018-12-17T07:29:49.741Z,3.50
2018-12-17T07:32:18.636Z,3.50
2018-12-17T07:34:46.587Z,3.50
2018-12-17T07:37:14.253Z,3.50
2018-12-17T07:39:41.848Z,3.50
2018-12-17T07:42:09.520Z,3.50
2018-12-17T07:44:37.052Z,3.70
2018-12-17T07:47:04.615Z,3.80
2018-12-17T07:49:32.148Z,3.80
2018-12-17T07:51:59.695Z,3.80
2018-12-17T07:54:27.227Z,3.90
2018-12-17T07:56:54.783Z,3.70
2018-12-17T07:59:22.303Z,3.80
2018-12-17T08:01:49.872Z,3.60
2018-12-17T08:04:17.420Z,3.80
2018-12-17T08:06:45.003Z,4.00
2018-12-17T08:09:12.523Z,4.00
2018-12-17T08:11:40.153Z,4.10
2018-12-17T08:14:07.680Z,4.10
2018-12-17T08:16:35.236Z,4.10
2018-12-17T08:19:02.798Z,4.20
2018-12-17T08:21:30.453Z,4.30
2018-12-17T08:23:58.077Z,4.30
2018-12-17T08:26:25.616Z,4.40
2018-12-17T08:28:53.573Z,4.30
2018-12-17T08:31:21.101Z,4.30
2018-12-17T08:33:48.669Z,4.30
2018-12-17T08:36:16.237Z,4.30
2018-12-17T08:38:43.805Z,4.30
2018-12-17T08:41:11.335Z,4.30
2018-12-17T08:43:38.895Z,4.20
2018-12-17T08:46:06.449Z,4.30
2018-12-17T08:48:34.008Z,4.40
2018-12-17T08:51:01.607Z,4.30
2018-12-17T08:53:29.166Z,4.30
2018-12-17T08:55:56.692Z,4.30
2018-12-17T08:58:24.319Z,4.40
2018-12-17T09:00:51.844Z,4.40
2018-12-17T09:03:19.387Z,4.40
2018-12-17T09:05:46.925Z,4.40
2018-12-17T09:08:14.476Z,4.40
2018-12-17T09:10:41.998Z,4.40
2018-12-17T09:13:09.551Z,4.50
2018-12-17T09:15:37.092Z,4.50
2018-12-17T09:18:04.668Z,4.50
2018-12-17T09:20:32.200Z,4.50
2018-12-17T09:22:59.749Z,4.50
2018-12-17T09:25:27.284Z,4.50
2018-12-17T09:27:54.831Z,4.40
2018-12-17T09:30:22.351Z,4.40
2018-12-17T09:32:49.905Z,4.40
2018-12-17T09:35:17.436Z,4.50
2018-12-17T09:37:44.984Z,4.50
2018-12-17T09:40:12.585Z,4.60
2018-12-17T09:42:40.148Z,4.60
2018-12-17T09:45:07.933Z,4.60
2018-12-17T09:47:35.493Z,4.70
2018-12-17T09:50:03.500Z,4.70
2018-12-17T09:52:31.050Z,4.70
2018-12-17T09:54:58.576Z,4.70
2018-12-17T09:57:26.108Z,4.70
2018-12-17T09:59:53.677Z,4.60
2018-12-17T10:02:21.215Z,4.60
2018-12-17T10:04:48.797Z,4.60
2018-12-17T10:07:16.322Z,4.70
2018-12-17T10:09:43.877Z,4.60
2018-12-17T10:12:11.407Z,4.80
2018-12-17T10:14:38.947Z,4.80
2018-12-17T10:17:06.494Z,4.90
2018-12-17T10:19:34.057Z,4.90
2018-12-17T10:22:01.587Z,4.80
2018-12-17T10:24:29.145Z,4.70
2018-12-17T10:26:56.739Z,4.70
2018-12-17T10:29:24.298Z,4.80
2018-12-17T10:31:51.825Z,4.90
2018-12-17T10:34:19.375Z,5.00
2018-12-17T10:36:46.899Z,5.00
2018-12-17T10:39:15.082Z,5.00
2018-12-17T10:41:42.817Z,5.00
2018-12-17T10:44:10.368Z,5.00
2018-12-17T10:46:37.895Z,5.10
2018-12-17T10:49:05.440Z,5.00
2018-12-17T10:51:32.966Z,5.00
2018-12-17T10:54:00.528Z,5.00
2018-12-17T10:56:28.055Z,5.10
2018-12-17T10:58:55.638Z,5.00
2018-12-17T11:04:31.263Z,5.00
2018-12-17T11:06:58.793Z,5.00
2018-12-17T11:09:26.339Z,5.10
2018-12-17T11:11:53.868Z,5.10
2018-12-17T11:14:21.488Z,5.20
2018-12-17T11:16:50.192Z,5.20
2018-12-17T11:19:17.749Z,5.20
2018-12-17T11:21:45.275Z,5.30
2018-12-17T11:24:12.828Z,5.30
2018-12-17T11:26:40.347Z,5.40
2018-12-17T11:29:07.892Z,5.40
2018-12-17T11:31:36.164Z,5.40
2018-12-17T11:34:03.790Z,5.50
2018-12-17T11:36:31.311Z,5.40
2018-12-17T11:38:58.868Z,5.40
2018-12-17T11:41:26.392Z,5.50
2018-12-17T11:43:53.951Z,5.50
2018-12-17T11:46:21.477Z,5.50
2018-12-17T11:48:49.103Z,5.60
2018-12-17T11:51:16.631Z,5.70
2018-12-17T11:53:44.177Z,5.60
2018-12-17T11:56:11.696Z,5.70
2018-12-17T11:58:39.258Z,5.70
2018-12-17T12:01:10.347Z,5.70
2018-12-17T12:03:38.904Z,5.60
2018-12-17T12:06:13.630Z,5.60
2018-12-17T12:08:36.007Z,5.70
2018-12-17T12:11:03.544Z,5.80
2018-12-17T12:13:31.063Z,5.80
2018-12-17T12:15:59.535Z,5.80
2018-12-17T12:18:29.730Z,5.80
2018-12-17T12:20:57.443Z,5.80
2018-12-17T12:23:24.969Z,5.90
2018-12-17T12:25:52.527Z,5.90
2018-12-17T12:28:20.043Z,6.00
2018-12-17T12:30:47.601Z,5.90
2018-12-17T12:33:15.148Z,6.00
2018-12-17T12:35:42.706Z,6.00
2018-12-17T12:38:10.239Z,6.00
2018-12-17T12:40:37.789Z,6.00
2018-12-17T12:43:05.321Z,6.00
2018-12-17T12:45:32.880Z,5.90
2018-12-17T12:48:00.420Z,6.00
2018-12-17T12:50:28.088Z,6.00
2018-12-17T12:52:55.603Z,5.90
2018-12-17T12:55:23.167Z,5.90
2018-12-17T12:57:50.806Z,6.00
2018-12-17T13:00:18.514Z,5.90
2018-12-17T13:02:46.125Z,6.00
2018-12-17T13:05:13.797Z,6.00
2018-12-17T13:07:41.323Z,6.00
2018-12-17T13:10:08.955Z,5.90
2018-12-17T13:12:36.501Z,5.80
2018-12-17T13:15:04.920Z,5.80
2018-12-17T13:17:32.463Z,5.90
2018-12-17T13:20:00.017Z,6.00
2018-12-17T13:22:27.547Z,6.00
2018-12-17T13:24:55.106Z,5.90
2018-12-17T13:27:22.627Z,5.90
2018-12-17T13:29:50.200Z,5.90
2018-12-17T13:32:17.866Z,5.80
2018-12-17T13:34:45.516Z,5.70
2018-12-17T13:37:13.060Z,5.60
2018-12-17T13:39:40.624Z,5.60
2018-12-17T13:42:08.147Z,5.70
2018-12-17T13:44:35.676Z,5.70
2018-12-17T13:47:03.249Z,5.80
2018-12-17T13:49:30.776Z,5.80
2018-12-17T13:52:04.157Z,5.80
2018-12-17T13:54:31.684Z,5.90
2018-12-17T13:56:59.236Z,5.90
2018-12-17T13:59:26.757Z,5.90
2018-12-17T14:01:54.312Z,5.90
2018-12-17T14:04:21.839Z,6.00
2018-12-17T14:06:49.388Z,5.90
2018-12-17T14:09:16.914Z,5.90
2018-12-17T14:11:44.550Z,5.90
2018-12-17T14:14:12.148Z,6.00
2018-12-17T14:16:45.496Z,6.10
2018-12-17T14:19:17.369Z,6.10
2018-12-17T14:21:50.757Z,6.10
2018-12-17T14:24:18.287Z,6.00
2018-12-17T14:26:45.840Z,6.00
2018-12-17T14:29:13.364Z,5.90
2018-12-17T14:31:40.923Z,5.90
2018-12-17T14:34:08.448Z,6.00
2018-12-17T14:36:36.008Z,6.00
2018-12-17T14:39:05.472Z,6.00
2018-12-17T14:41:33.036Z,6.00
2018-12-17T14:44:06.398Z,6.00
2018-12-17T14:46:35.943Z,5.90
2018-12-17T14:49:03.469Z,5.90
2018-12-17T14:51:31.171Z,6.00
2018-12-17T14:53:58.696Z,5.90
2018-12-17T14:56:26.252Z,6.00
2018-12-17T14:58:53.798Z,5.90
2018-12-17T15:01:21.353Z,5.90
2018-12-17T15:03:48.896Z,5.90
2018-12-17T15:06:16.493Z,5.80
2018-12-17T15:08:44.044Z,5.70
2018-12-17T15:11:11.646Z,5.80
2018-12-17T15:13:39.265Z,5.80
2018-12-17T15:16:06.788Z,5.80
2018-12-17T15:18:34.334Z,5.80
2018-12-17T15:21:01.861Z,5.80
2018-12-17T15:23:29.409Z,5.70
2018-12-17T15:25:56.937Z,5.50
2018-12-17T15:28:24.487Z,5.40
2018-12-17T15:30:52.023Z,5.40
2018-12-17T15:33:19.582Z,5.40
2018-12-17T15:35:47.110Z,5.30
2018-12-17T15:38:14.667Z,5.30
2018-12-17T15:40:42.226Z,5.20
2018-12-17T15:43:09.799Z,5.20
2018-12-17T15:45:37.332Z,5.20
2018-12-17T15:48:04.910Z,5.10
2018-12-17T15:50:32.463Z,5.10
2018-12-17T15:53:00.065Z,5.10
2018-12-17T15:55:27.599Z,5.10
2018-12-17T15:57:55.154Z,5.20
2018-12-17T16:00:22.795Z,5.20
2018-12-17T16:02:50.426Z,5.20
2018-12-17T16:05:17.960Z,5.10
2018-12-17T16:07:45.510Z,5.00
2018-12-17T16:10:13.044Z,5.20
2018-12-17T16:12:40.597Z,5.20
2018-12-17T16:15:08.292Z,5.20
2018-12-17T16:17:35.877Z,5.30
2018-12-17T16:20:04.656Z,5.30
2018-12-17T16:22:33.015Z,5.40
2018-12-17T16:25:00.536Z,5.40
2018-12-17T16:27:28.172Z,5.40
2018-12-17T16:29:55.708Z,5.40
2018-12-17T16:32:23.259Z,5.40
2018-12-17T16:34:50.787Z,5.50
2018-12-17T16:37:18.304Z,5.30
2018-12-17T16:39:45.853Z,5.20
2018-12-17T16:42:13.374Z,5.10
2018-12-17T16:44:40.927Z,5.00
2018-12-17T16:47:08.451Z,5.00
2018-12-17T16:49:36.002Z,5.00
2018-12-17T16:52:03.523Z,5.00
2018-12-17T16:54:31.072Z,5.00
2018-12-17T16:56:58.600Z,4.90
2018-12-17T16:59:26.148Z,4.80
2018-12-17T17:01:53.676Z,4.80
2018-12-17T17:04:21.351Z,4.70
2018-12-17T17:06:48.873Z,4.70
2018-12-17T17:09:16.560Z,4.70
2018-12-17T17:11:44.085Z,4.80
2018-12-17T17:14:11.638Z,4.80
2018-12-17T17:16:39.157Z,4.90
2018-12-17T17:19:06.724Z,5.00
2018-12-17T17:21:34.243Z,5.00
2018-12-17T17:24:01.787Z,5.10
2018-12-17T17:26:29.303Z,5.10
2018-12-17T17:28:56.859Z,5.00
2018-12-17T17:31:24.384Z,5.00
2018-12-17T17:33:51.937Z,5.00
2018-12-17T17:36:19.456Z,5.00
2018-12-17T17:38:47.015Z,5.00
2018-12-17T17:41:14.531Z,5.00
2018-12-17T17:43:43.013Z,5.10
2018-12-17T17:46:10.541Z,5.10
2018-12-17T17:48:38.110Z,5.10
2018-12-17T17:51:05.665Z,5.10
2018-12-17T17:53:33.227Z,5.10
2018-12-17T17:56:00.759Z,5.10
2018-12-17T17:58:28.318Z,5.20
2018-12-17T18:00:56.071Z,5.20
2018-12-17T18:03:23.646Z,5.20
2018-12-17T18:05:51.183Z,5.20
2018-12-17T18:08:18.739Z,5.20
2018-12-17T18:10:46.271Z,5.20
2018-12-17T18:13:13.840Z,5.10
2018-12-17T18:15:41.976Z,5.10
2018-12-17T18:18:09.809Z,5.00
2018-12-17T18:20:37.371Z,5.00
2018-12-17T18:23:04.990Z,4.80
2018-12-17T18:25:32.563Z,4.60
2018-12-17T18:28:00.092Z,4.60
2018-12-17T18:30:27.651Z,4.50
2018-12-17T18:32:55.184Z,4.50
2018-12-17T18:35:22.758Z,4.60
2018-12-17T18:37:50.294Z,4.70
2018-12-17T18:40:17.843Z,4.80
2018-12-17T18:42:45.367Z,4.90
2018-12-17T18:45:13.018Z,4.90
2018-12-17T18:47:40.551Z,4.90
2018-12-17T18:50:08.192Z,5.00
2018-12-17T18:52:35.720Z,5.20
2018-12-17T18:55:03.628Z,5.40
2018-12-17T18:57:31.278Z,5.30
2018-12-17T18:59:58.832Z,5.40
2018-12-17T19:02:32.902Z,5.50
2018-12-17T19:04:55.923Z,5.60
2018-12-17T19:07:23.451Z,5.60
2018-12-17T19:09:51.009Z,5.60
2018-12-17T19:12:18.532Z,5.60
2018-12-17T19:14:46.088Z,5.70
2018-12-17T19:17:13.615Z,5.80
2018-12-17T19:19:41.171Z,5.90
2018-12-17T19:22:08.692Z,5.90
2018-12-17T19:24:36.245Z,5.90
2018-12-17T19:27:03.852Z,5.90
2018-12-17T19:29:31.407Z,5.80
2018-12-17T19:31:58.937Z,5.80
2018-12-17T19:34:26.492Z,5.80
2018-12-17T19:36:54.020Z,5.70
2018-12-17T19:39:21.582Z,5.60
2018-12-17T19:41:49.111Z,5.40
2018-12-17T19:44:16.671Z,5.30
2018-12-17T19:46:44.198Z,5.40
2018-12-17T19:49:11.752Z,5.30
2018-12-17T19:51:39.452Z,5.20
2018-12-17T19:54:07.008Z,5.20
2018-12-17T19:56:34.540Z,5.10
2018-12-17T19:59:02.068Z,5.00
2018-12-17T20:01:29.624Z,5.00
2018-12-17T20:03:57.151Z,5.00
2018-12-17T20:06:24.730Z,4.90
2018-12-17T20:08:53.156Z,4.90
2018-12-17T20:11:20.933Z,4.90
2018-12-17T20:13:48.459Z,5.00
2018-12-17T20:16:16.012Z,5.00
2018-12-17T20:18:43.550Z,4.90
2018-12-17T20:21:11.129Z,5.00
2018-12-17T20:23:38.652Z,5.00
2018-12-17T20:26:06.219Z,5.00
2018-12-17T20:28:33.740Z,5.10
2018-12-17T20:31:01.297Z,5.00
2018-12-17T20:33:28.820Z,5.00
2018-12-17T20:35:56.372Z,5.10
2018-12-17T20:38:23.891Z,5.10
2018-12-17T20:40:51.443Z,5.10
2018-12-17T20:43:18.971Z,5.00
2018-12-17T20:45:46.515Z,4.90
2018-12-17T20:48:14.048Z,4.90
2018-12-17T20:50:41.606Z,4.80
2018-12-17T20:53:09.135Z,4.80
2018-12-17T20:55:36.684Z,4.80
2018-12-17T20:58:04.214Z,4.80
2018-12-17T21:00:31.758Z,4.80
2018-12-17T21:03:00.351Z,4.90
2018-12-17T21:05:28.357Z,4.90
2018-12-17T21:07:55.888Z,4.80
2018-12-17T21:10:23.443Z,4.90
2018-12-17T21:12:50.976Z,4.90
2018-12-17T21:15:18.528Z,5.00
2018-12-17T21:17:46.051Z,5.10
2018-12-17T21:20:13.676Z,4.90
2018-12-17T21:22:41.199Z,5.00
2018-12-17T21:25:08.710Z,5.00
2018-12-17T21:27:36.260Z,5.00
2018-12-17T21:30:04.942Z,5.00
2018-12-17T21:32:32.500Z,5.00
2018-12-17T21:35:00.024Z,5.10
2018-12-17T21:37:27.571Z,5.10
2018-12-17T21:39:55.110Z,5.10
2018-12-17T21:42:22.737Z,5.10
2018-12-17T21:44:50.300Z,5.10
2018-12-17T21:47:17.860Z,5.10
2018-12-17T21:49:45.387Z,5.10
2018-12-17T21:52:13.013Z,5.20
2018-12-17T21:54:40.540Z,5.10
2018-12-17T21:57:08.089Z,5.20
2018-12-17T21:59:35.617Z,5.20
2018-12-17T22:02:03.175Z,5.10
2018-12-17T22:04:30.699Z,5.00
2018-12-17T22:06:58.255Z,5.00
2018-12-17T22:09:25.795Z,5.00
2018-12-17T22:11:53.349Z,4.80
2018-12-17T22:14:20.871Z,4.80
2018-12-17T22:16:48.415Z,4.80
2018-12-17T22:19:15.938Z,4.80
2018-12-17T22:21:43.492Z,4.80
2018-12-17T22:24:11.023Z,4.80
2018-12-17T22:26:38.582Z,4.90
2018-12-17T22:29:06.108Z,4.90
2018-12-17T22:31:33.656Z,5.00
2018-12-17T22:34:01.181Z,5.00
2018-12-17T22:36:28.733Z,5.10
2018-12-17T22:38:56.259Z,5.10
2018-12-17T22:41:23.821Z,5.10
2018-12-17T22:43:51.348Z,5.20
2018-12-17T22:46:18.866Z,5.10
2018-12-17T22:48:46.415Z,5.20
2018-12-17T22:51:13.936Z,5.20
2018-12-17T22:53:41.491Z,5.20
2018-12-17T22:56:09.015Z,5.10
2018-12-17T22:58:42.172Z,5.10
2018-12-17T23:01:06.179Z,5.10
2018-12-17T23:03:33.738Z,5.20
2018-12-17T23:06:01.269Z,5.30
2018-12-17T23:08:28.811Z,5.20
2018-12-17T23:11:08.303Z,5.20
2018-12-17T23:13:47.815Z,5.10
2018-12-17T23:16:27.225Z,5.10
2018-12-17T23:18:54.365Z,5.20
2018-12-17T23:21:22.159Z,5.30
2018-12-17T23:23:49.708Z,5.30
2018-12-17T23:26:17.316Z,5.40
2018-12-17T23:28:44.947Z,5.40
2018-12-17T23:31:12.564Z,5.40
2018-12-17T23:33:40.207Z,5.30
2018-12-17T23:36:08.090Z,5.30
2018-12-17T23:38:35.639Z,5.20
2018-12-17T23:41:03.161Z,5.30
2018-12-17T23:43:30.788Z,5.20
2018-12-17T23:45:58.307Z,5.20
2018-12-17T23:48:25.852Z,5.20
2018-12-17T23:50:53.371Z,5.10
2018-12-17T23:53:20.916Z,5.10
2018-12-17T23:55:48.431Z,5.10
2018-12-17T23:58:15.982Z,5.10
